Time;durP1;ratioP1;P1;durP2;ratioP2;P2;SDS_P1;SDS_P2;PMS_P1;PMS_P2;Temp;Humidity;BMP_temperature;BMP_pressure;BME280_temperature;BME280_humidity;BME280_pressure;Samples;Min_cycle;Max_cycle;Signal;HPM_P1;HPM_P2
2022/05/19 00:02:10;;;;;;;1.37;1.27;;;;;;;7.33;59.14;101608.55;1404000;92;21437;-86
2022/05/19 00:04:36;;;;;;;2.13;1.63;;;;;;;7.28;59.34;101614.60;1396738;92;22995;-88
2022/05/19 00:07:03;;;;;;;1.93;1.43;;;;;;;7.22;59.91;101607.94;1403909;92;22120;-89
2022/05/19 00:09:30;;;;;;;5.80;1.97;;;;;;;7.19;59.38;101617.34;1400567;91;22346;-90
2022/05/19 00:12:01;;;;;;;1.90;1.70;;;;;;;7.13;59.52;101613.75;1409296;91;22256;-89
2022/05/19 00:14:28;;;;;;;3.80;1.85;;;;;;;7.08;60.22;101607.95;1455864;88;23183;-86
2022/05/19 00:16:56;;;;;;;5.37;2.40;;;;;;;7.01;62.93;101611.90;1429890;91;21452;-89
2022/05/19 00:19:22;;;;;;;3.50;1.77;;;;;;;6.94;60.33;101601.39;1395298;91;23309;-88
2022/05/19 00:21:49;;;;;;;5.20;1.67;;;;;;;6.91;59.55;101603.74;1431377;90;22260;-90
2022/05/19 00:24:15;;;;;;;2.33;1.40;;;;;;;6.92;60.35;101605.90;1429510;90;23296;-89
2022/05/19 00:26:42;;;;;;;5.30;1.70;;;;;;;6.91;59.27;101608.16;1442901;90;22135;-88
2022/05/19 00:29:09;;;;;;;2.53;1.70;;;;;;;6.89;58.41;101616.62;1447752;89;22357;-88
2022/05/19 00:31:36;;;;;;;2.40;1.60;;;;;;;6.87;58.10;101615.38;1431462;90;22186;-86
2022/05/19 00:34:04;;;;;;;5.23;1.90;;;;;;;6.91;58.69;101616.06;1437452;89;23223;-87
2022/05/19 00:36:30;;;;;;;2.93;1.70;;;;;;;6.96;59.33;101621.86;1447359;89;22231;-87
2022/05/19 00:38:57;;;;;;;4.80;1.73;;;;;;;6.97;59.44;101618.30;1443288;89;22252;-87
2022/05/19 00:41:23;;;;;;;2.43;1.53;;;;;;;6.98;60.36;101616.04;1438588;89;23134;-86
2022/05/19 00:44:01;;;;;;;1.53;1.30;;;;;;;6.98;60.36;101616.04;1457658;89;22297;-88
2022/05/19 00:46:48;;;;;;;7.27;1.97;;;;;;;6.96;60.20;101608.26;1446681;89;22369;-87
2022/05/19 00:49:31;;;;;;;4.40;2.17;;;;;;;6.93;60.85;101609.77;1449472;89;22247;-87
2022/05/19 00:52:03;;;;;;;7.87;2.20;;;;;;;6.89;60.48;101619.25;1451658;88;22253;-87
2022/05/19 00:54:36;;;;;;;1.83;1.50;;;;;;;6.84;60.55;101618.20;1423762;91;22257;-87
2022/05/19 00:57:20;;;;;;;3.63;1.90;;;;;;;6.80;62.17;101618.50;1444983;89;23198;-89
2022/05/19 00:59:55;;;;;;;3.70;1.60;;;;;;;6.77;61.92;101611.64;1435178;89;22203;-89
2022/05/19 01:02:26;;;;;;;3.60;1.87;;;;;;;6.73;63.02;101609.67;1418287;91;22208;-89
2022/05/19 01:04:57;;;;;;;2.17;1.65;;;;;;;6.73;63.02;101609.67;1433377;90;23529;-89
2022/05/19 01:07:34;;;;;;;4.87;1.90;;;;;;;6.78;63.13;101606.45;1436912;90;21430;-88
2022/05/19 01:10:03;;;;;;;5.70;2.03;;;;;;;6.75;63.80;101606.45;1433270;89;23296;-86
2022/05/19 01:12:29;;;;;;;4.97;1.93;;;;;;;6.77;62.86;101612.48;1452800;88;22106;-86
2022/05/19 01:14:55;;;;;;;3.87;1.87;;;;;;;6.77;63.00;101612.95;1449755;89;22332;-86
2022/05/19 01:17:22;;;;;;;2.27;1.60;;;;;;;6.74;63.85;101610.52;1446244;89;23062;-86
2022/05/19 01:19:56;;;;;;;4.23;1.77;;;;;;;6.67;64.01;101607.39;1428724;89;22231;-87
2022/05/19 01:22:56;;;;;;;3.37;1.50;;;;;;;6.68;64.52;101615.68;1432255;91;22215;-87
2022/05/19 01:25:48;;;;;;;7.83;2.10;;;;;;;6.63;64.89;101616.42;1430780;91;22267;-88
2022/05/19 01:28:15;;;;;;;2.70;2.10;;;;;;;6.48;65.84;101619.52;1429966;91;21686;-88
2022/05/19 01:30:43;;;;;;;3.43;1.83;;;;;;;6.48;65.84;101609.44;1429291;91;22171;-88
2022/05/19 01:33:10;;;;;;;6.80;3.30;;;;;;;6.41;65.34;101609.44;1437876;89;22238;-88
2022/05/19 01:35:36;;;;;;;4.77;2.27;;;;;;;6.39;65.19;101613.94;1444410;90;22401;-88
2022/05/19 01:38:07;;;;;;;3.93;2.00;;;;;;;6.31;65.48;101636.30;1430912;89;23014;-89
2022/05/19 01:41:03;;;;;;;;;;;;;;;6.22;66.67;101620.22;1449906;89;22246;-86
2022/05/19 01:43:57;;;;;;;2.70;1.90;;;;;;;6.13;68.78;101617.67;1448365;89;20261;-88
2022/05/19 01:46:33;;;;;;;7.53;2.73;;;;;;;6.04;67.65;101614.23;1455154;89;21903;-86
2022/05/19 01:49:14;;;;;;;4.53;2.10;;;;;;;5.97;68.09;101611.12;1437696;89;21826;-86
2022/05/19 01:51:57;;;;;;;4.10;1.77;;;;;;;5.97;68.09;101611.12;1428417;91;22202;-90
2022/05/19 01:54:35;;;;;;;10.00;2.50;;;;;;;5.95;68.22;101616.94;1430489;91;21539;-89
2022/05/19 01:57:10;;;;;;;5.50;2.50;;;;;;;5.94;68.62;101615.72;1420399;90;22108;-89
2022/05/19 01:59:44;;;;;;;2.50;1.73;;;;;;;5.91;67.84;101613.24;1418022;91;22091;-89
2022/05/19 02:02:31;;;;;;;3.33;2.47;;;;;;;5.93;67.66;101616.61;1426762;90;21900;-89
2022/05/19 02:05:14;;;;;;;2.67;1.70;;;;;;;5.89;69.40;101620.73;1408154;90;21903;-90
2022/05/19 02:07:44;;;;;;;3.63;1.90;;;;;;;5.89;69.40;101620.73;1438881;90;21788;-90
2022/05/19 02:10:36;;;;;;;2.30;1.83;;;;;;;5.85;68.74;101615.28;1454810;90;21808;-88
2022/05/19 02:13:03;;;;;;;5.67;2.03;;;;;;;5.82;68.43;101622.03;1447798;89;21876;-89
2022/05/19 02:15:34;;;;;;;1.60;1.37;;;;;;;5.78;68.46;101615.71;1445403;89;21392;-88
2022/05/19 02:18:01;;;;;;;5.87;2.50;;;;;;;5.78;68.25;101619.21;1442419;90;21908;-88
2022/05/19 02:20:29;;;;;;;4.43;1.60;;;;;;;5.66;71.32;101617.25;1430444;89;22075;-86
2022/05/19 02:22:56;;;;;;;5.13;2.20;;;;;;;5.62;69.88;101615.75;1430954;90;21892;-87
2022/05/19 02:25:30;;;;;;;5.07;2.13;;;;;;;5.62;69.88;101615.75;1435829;89;22804;-86
2022/05/19 02:28:29;;;;;;;5.33;1.90;;;;;;;5.66;69.82;101618.09;1440446;90;22022;-87
2022/05/19 02:30:56;;;;;;;6.37;1.97;;;;;;;5.71;70.16;101624.89;1449721;90;21728;-88
2022/05/19 02:33:23;;;;;;;2.90;1.83;;;;;;;5.66;70.74;101615.94;1423256;90;22784;-88
2022/05/19 02:35:50;;;;;;;3.57;2.10;;;;;;;5.66;70.74;101615.94;1427885;90;21976;-88
2022/05/19 02:38:19;;;;;;;3.97;1.97;;;;;;;5.75;70.44;101623.30;1431022;90;21912;-86
2022/05/19 02:40:46;;;;;;;3.00;1.70;;;;;;;5.77;70.48;101624.53;1429449;90;21830;-87
2022/05/19 02:43:14;;;;;;;6.43;2.00;;;;;;;5.66;70.74;101627.77;1455417;89;22083;-87
2022/05/19 02:45:41;;;;;;;3.53;1.77;;;;;;;5.66;70.74;101627.77;1446924;89;21875;-89
2022/05/19 02:48:09;;;;;;;5.03;2.53;;;;;;;5.63;70.98;101629.25;1449320;90;22895;-89
2022/05/19 02:50:37;;;;;;;15.33;2.90;;;;;;;5.57;71.36;101623.87;1447804;90;21858;-88
2022/05/19 02:53:04;;;;;;;3.63;1.83;;;;;;;5.56;71.41;101626.60;1451598;89;21904;-88
2022/05/19 02:55:30;;;;;;;4.40;1.70;;;;;;;5.55;72.96;101623.58;1456494;89;21757;-89
2022/05/19 02:57:57;;;;;;;7.40;1.80;;;;;;;5.52;73.15;101619.81;1415022;90;22822;-87
2022/05/19 03:00:25;;;;;;;8.27;2.77;;;;;;;5.48;75.06;101620.92;1433052;90;21823;-88
2022/05/19 03:02:57;;;;;;;6.80;2.40;;;;;;;5.39;74.32;101615.25;1434555;90;22003;-88
2022/05/19 03:05:28;;;;;;;3.57;1.73;;;;;;;5.39;73.37;101617.88;1452940;89;21861;-86
2022/05/19 03:07:54;;;;;;;;;;;;;;;5.42;73.13;101622.11;1431962;90;21697;-88
2022/05/19 03:10:22;;;;;;;6.80;2.10;;;;;;;5.39;71.88;101613.94;1425715;91;20968;-90
2022/05/19 03:12:49;;;;;;;3.67;2.07;;;;;;;5.39;71.88;101613.94;1439560;90;21758;-91
2022/05/19 03:15:15;;;;;;;4.30;1.57;;;;;;;5.38;72.50;101624.07;1452781;90;22352;-90
2022/05/19 03:17:42;;;;;;;6.57;2.20;;;;;;;5.32;72.77;101627.04;1457428;89;21829;-90
2022/05/19 03:20:10;;;;;;;6.57;1.97;;;;;;;5.29;72.33;101631.59;1443529;89;23822;-86
2022/05/19 03:22:37;;;;;;;3.70;2.10;;;;;;;5.29;71.29;101635.05;1436347;90;21861;-88
2022/05/19 03:25:05;;;;;;;5.83;3.00;;;;;;;5.27;72.74;101640.88;1428032;90;21718;-87
2022/05/19 03:27:34;;;;;;;5.40;1.77;;;;;;;5.24;73.01;101640.20;1435542;91;22980;-89
2022/05/19 03:30:00;;;;;;;7.73;2.00;;;;;;;5.23;72.38;101646.36;1441566;90;22002;-88
2022/05/19 03:32:28;;;;;;;4.40;2.30;;;;;;;5.27;71.83;101648.75;1441520;89;21735;-89
2022/05/19 03:34:54;;;;;;;5.07;2.67;;;;;;;5.35;71.75;101650.94;1428107;90;21858;-91
2022/05/19 03:37:20;;;;;;;4.63;2.30;;;;;;;5.47;71.09;101650.72;1429236;91;21783;-90
2022/05/19 03:39:46;;;;;;;5.17;1.97;;;;;;;5.57;71.03;101656.70;1445735;90;21744;-89
2022/05/19 03:42:12;;;;;;;15.40;3.07;;;;;;;5.66;70.03;101660.13;1445031;89;21802;-88
2022/05/19 03:44:38;;;;;;;15.63;4.57;;;;;;;5.71;70.75;101659.88;1426073;91;21794;-88
2022/05/19 03:47:06;;;;;;;14.60;6.30;;;;;;;5.76;69.81;101664.41;1415755;89;22098;-90
2022/05/19 03:49:33;;;;;;;12.63;6.87;;;;;;;5.84;69.16;101663.52;1456269;89;21758;-89
2022/05/19 03:51:59;;;;;;;16.87;8.07;;;;;;;5.92;69.56;101663.06;1442305;89;22961;-89
2022/05/19 03:54:25;;;;;;;20.93;7.63;;;;;;;6.04;69.60;101664.17;1433554;91;21940;-90
2022/05/19 03:56:51;;;;;;;20.17;9.10;;;;;;;6.04;69.60;101664.17;1438406;89;21860;-90
2022/05/19 03:59:17;;;;;;;11.63;6.43;;;;;;;6.11;70.34;101665.53;1444597;89;22103;-90
2022/05/19 04:01:44;;;;;;;14.63;6.93;;;;;;;6.17;71.44;101659.91;1439773;90;21822;-88
2022/05/19 04:04:10;;;;;;;14.60;6.27;;;;;;;6.20;69.67;101656.56;1431698;90;21951;-90
2022/05/19 04:06:36;;;;;;;13.40;6.43;;;;;;;6.29;69.75;101640.78;1431021;90;23199;-89
2022/05/19 04:09:05;;;;;;;15.23;4.63;;;;;;;6.40;70.29;101648.05;1448116;89;22207;-90
2022/05/19 04:11:32;;;;;;;13.10;6.63;;;;;;;6.63;70.21;101662.94;1444772;90;24024;-90
2022/05/19 04:13:59;;;;;;;19.63;6.37;;;;;;;6.63;70.21;101662.94;1438169;90;22312;-90
2022/05/19 04:16:25;;;;;;;16.80;4.80;;;;;;;6.76;69.80;101670.00;1457870;89;22077;-91
2022/05/19 04:18:51;;;;;;;15.37;4.70;;;;;;;6.91;69.92;101671.33;1449661;89;22149;-90
2022/05/19 04:21:17;;;;;;;13.60;5.37;;;;;;;7.05;69.31;101668.70;1450760;89;22369;-89
2022/05/19 04:23:44;;;;;;;8.03;3.77;;;;;;;7.19;68.89;101669.14;1436879;89;22190;-89
2022/05/19 04:26:10;;;;;;;13.50;4.50;;;;;;;7.32;68.82;101675.34;1429064;90;22255;-90
2022/05/19 04:28:36;;;;;;;9.73;3.87;;;;;;;7.44;68.19;101677.67;1451548;89;22266;-89
2022/05/19 04:31:02;;;;;;;19.03;3.70;;;;;;;7.55;68.18;101679.16;1446417;89;22182;-90
2022/05/19 04:33:29;;;;;;;15.17;4.00;;;;;;;7.66;68.02;101672.73;1433257;89;21473;-90
2022/05/19 04:35:55;;;;;;;14.67;3.27;;;;;;;7.82;67.84;101673.05;1442218;89;22361;-87
2022/05/19 04:38:22;;;;;;;10.33;2.90;;;;;;;7.93;67.70;101645.52;1418263;91;21578;-90
2022/05/19 04:40:50;;;;;;;6.63;3.37;;;;;;;8.08;67.19;101670.03;1424085;90;21419;-91
2022/05/19 04:43:22;;;;;;;9.03;4.00;;;;;;;8.25;66.64;101671.55;1449627;90;21422;-90
2022/05/19 04:45:53;;;;;;;6.13;2.70;;;;;;;8.37;65.83;101672.05;1437986;90;21466;-90
2022/05/19 04:48:21;;;;;;;8.08;3.22;;;;;;;8.53;65.38;101682.46;1427589;90;21581;-91
2022/05/19 04:50:53;;;;;;;5.23;2.80;;;;;;;8.66;65.05;101685.09;1438035;89;21660;-91
2022/05/19 04:53:20;;;;;;;5.40;2.80;;;;;;;8.81;64.38;101682.75;1458019;89;21452;-91
2022/05/19 04:55:46;;;;;;;6.97;2.97;;;;;;;8.94;63.13;101678.30;1447994;89;23076;-92
2022/05/19 04:58:12;;;;;;;3.87;2.30;;;;;;;9.09;62.99;101678.17;1404994;90;21443;-92
2022/05/19 05:00:39;;;;;;;12.87;2.57;;;;;;;9.23;61.29;101678.89;1439744;90;21541;-90
2022/05/19 05:03:06;;;;;;;12.07;3.13;;;;;;;9.38;61.50;101678.75;1441078;90;21460;-90
2022/05/19 05:05:32;;;;;;;9.93;3.27;;;;;;;9.54;61.45;101681.16;1441073;89;21464;-88
2022/05/19 05:07:59;;;;;;;11.50;4.00;;;;;;;9.68;61.14;101684.49;1439769;89;22633;-90
2022/05/19 05:10:26;;;;;;;7.47;2.90;;;;;;;9.86;61.18;101690.23;1457897;89;21563;-90
2022/05/19 05:12:52;;;;;;;7.93;2.87;;;;;;;10.03;60.33;101686.36;1439523;89;21378;-91
2022/05/19 05:15:18;;;;;;;10.77;2.87;;;;;;;10.20;59.95;101688.23;1449260;90;22471;-91
2022/05/19 05:17:45;;;;;;;5.30;2.17;;;;;;;10.37;58.95;101690.02;1438857;89;21398;-90
2022/05/19 05:20:15;;;;;;;7.67;2.40;;;;;;;10.51;58.04;101689.45;1442066;89;21480;-88
2022/05/19 05:22:41;;;;;;;4.33;2.17;;;;;;;10.69;57.59;101699.13;1430797;89;21414;-88
2022/05/19 05:25:13;;;;;;;3.67;2.47;;;;;;;10.84;56.99;101701.91;1443432;89;21533;-88
2022/05/19 05:27:39;;;;;;;8.07;2.87;;;;;;;10.98;55.67;101703.49;1436693;89;21422;-87
2022/05/19 05:30:07;;;;;;;4.33;2.33;;;;;;;11.12;54.83;101704.59;1459582;89;21444;-86
2022/05/19 05:32:34;;;;;;;8.00;2.57;;;;;;;11.25;54.18;101701.34;1455985;89;21459;-87
2022/05/19 05:35:02;;;;;;;4.30;1.80;;;;;;;11.42;54.46;101708.42;1457313;90;21616;-87
2022/05/19 05:37:29;;;;;;;5.60;2.07;;;;;;;11.55;51.74;101706.98;1451490;89;21406;-86
2022/05/19 05:39:55;;;;;;;4.13;2.20;;;;;;;11.69;51.95;101707.55;1453876;88;21414;-86
2022/05/19 05:42:21;;;;;;;7.03;2.17;;;;;;;11.83;50.14;101712.24;1450996;89;21598;-86
2022/05/19 05:44:49;;;;;;;5.13;2.50;;;;;;;11.95;50.67;101707.28;1455857;89;21466;-87
2022/05/19 05:47:15;;;;;;;3.43;2.07;;;;;;;12.15;51.16;101710.47;1440047;89;21430;-86
2022/05/19 05:49:41;;;;;;;4.50;2.00;;;;;;;12.32;51.13;101709.08;1452418;89;22516;-87
2022/05/19 05:52:13;;;;;;;3.20;1.90;;;;;;;12.49;50.46;101712.14;1428468;89;21437;-86
2022/05/19 05:54:49;;;;;;;6.23;2.10;;;;;;;12.61;50.48;101707.95;1431506;90;22263;-85
2022/05/19 05:57:19;;;;;;;5.47;2.70;;;;;;;12.80;50.28;101711.69;1439819;89;21420;-86
2022/05/19 05:59:45;;;;;;;9.17;2.33;;;;;;;13.01;49.92;101713.02;1434997;89;21872;-86
2022/05/19 06:02:11;;;;;;;2.77;1.90;;;;;;;13.14;47.53;101720.77;1441452;89;21497;-86
2022/05/19 06:04:43;;;;;;;9.60;2.00;;;;;;;13.27;47.78;101715.61;1406039;90;22326;-86
2022/05/19 06:07:10;;;;;;;5.43;2.40;;;;;;;13.39;46.16;101719.02;1433736;89;22501;-86
2022/05/19 06:09:39;;;;;;;11.27;2.73;;;;;;;13.49;47.06;101719.91;1439897;89;21295;-86
2022/05/19 06:12:07;;;;;;;8.57;1.87;;;;;;;13.63;46.75;101715.16;1434070;89;21552;-85
2022/05/19 06:14:33;;;;;;;7.77;2.40;;;;;;;13.79;46.05;101718.16;1400660;92;22340;-89
2022/05/19 06:17:00;;;;;;;7.20;2.70;;;;;;;13.98;47.24;101716.86;1418055;91;23028;-87
2022/05/19 06:19:26;;;;;;;5.30;2.00;;;;;;;14.12;46.94;101714.75;1442198;89;21379;-90
2022/05/19 06:21:52;;;;;;;6.07;2.03;;;;;;;14.28;46.88;101720.86;1410968;91;21555;-89
2022/05/19 06:24:18;;;;;;;3.93;2.07;;;;;;;14.47;46.10;101723.50;1425173;91;21376;-91
2022/05/19 06:26:44;;;;;;;6.53;3.57;;;;;;;14.69;45.82;101718.89;1434806;91;22627;-90
2022/05/19 06:29:11;;;;;;;4.20;1.83;;;;;;;14.81;45.25;101717.23;1434662;91;21463;-90
2022/05/19 06:31:37;;;;;;;3.77;1.80;;;;;;;14.95;44.17;101721.28;1433618;90;21409;-91
2022/05/19 06:34:04;;;;;;;4.93;1.87;;;;;;;15.04;43.27;101716.41;1433042;90;21517;-89
2022/05/19 06:36:30;;;;;;;8.90;1.97;;;;;;;15.17;43.58;101720.09;1444003;91;21555;-92
2022/05/19 06:38:56;;;;;;;2.67;1.77;;;;;;;15.27;40.34;101722.21;1432316;91;21534;-89
2022/05/19 06:44:07;;;;;;;10.13;2.23;;;;;;;15.42;41.71;101715.06;1425326;90;21585;-91
2022/05/19 06:46:33;;;;;;;4.90;2.47;;;;;;;15.55;41.71;101719.06;1430907;90;21459;-91
2022/05/19 06:49:02;;;;;;;11.37;2.73;;;;;;;15.71;41.62;101711.79;1436715;91;21686;-91
2022/05/19 06:51:27;;;;;;;7.80;2.40;;;;;;;15.88;41.26;101711.94;1429617;91;21515;-90
2022/05/19 06:53:54;;;;;;;6.80;2.20;;;;;;;16.06;41.94;101714.66;1441263;90;21592;-91
2022/05/19 06:56:20;;;;;;;6.83;1.93;;;;;;;16.13;38.59;101705.02;1454911;88;22523;-90
2022/05/19 06:58:46;;;;;;;4.50;2.70;;;;;;;16.20;37.78;101710.95;1452445;89;21833;-91
2022/05/19 07:01:12;;;;;;;7.23;1.67;;;;;;;16.22;38.80;101709.44;1449873;89;21474;-91
2022/05/19 07:03:38;;;;;;;13.37;1.93;;;;;;;16.42;38.50;101706.11;1456397;89;21607;-90
2022/05/19 07:06:05;;;;;;;16.43;2.90;;;;;;;16.56;38.09;101704.21;1451655;89;21466;-90
2022/05/19 07:08:31;;;;;;;9.67;1.60;;;;;;;16.68;37.79;101696.78;1434241;90;21444;-87
2022/05/19 07:10:58;;;;;;;3.47;1.43;;;;;;;16.81;34.50;101700.42;1470257;88;21348;-87
2022/05/19 07:13:24;;;;;;;6.47;1.50;;;;;;;16.86;32.66;101704.77;1417983;89;21326;-85
2022/05/19 07:15:50;;;;;;;11.73;2.37;;;;;;;16.98;33.12;101702.19;1432179;89;21379;-87
2022/05/19 07:18:16;;;;;;;2.13;1.40;;;;;;;17.11;34.31;101706.59;1417350;89;21475;-87
2022/05/19 07:20:45;;;;;;;4.03;1.40;;;;;;;17.28;33.76;101704.00;1448252;89;21452;-86
2022/05/19 07:23:15;;;;;;;64.70;4.53;;;;;;;17.37;32.67;101702.52;1448878;89;21518;-88
2022/05/19 07:25:43;;;;;;;8.67;1.80;;;;;;;17.49;33.07;101700.42;1436949;89;21422;-87
2022/05/19 07:28:10;;;;;;;3.07;1.57;;;;;;;17.64;33.86;101709.17;1436535;89;23009;-86
2022/05/19 07:30:37;;;;;;;2.60;1.20;;;;;;;17.77;33.69;101717.55;1443757;89;21325;-88
2022/05/19 07:33:04;;;;;;;9.37;1.90;;;;;;;17.93;33.58;101708.27;1424283;89;21533;-86
2022/05/19 07:35:30;;;;;;;12.07;1.83;;;;;;;18.07;33.13;101708.59;1415020;90;21451;-86
2022/05/19 07:37:56;;;;;;;2.03;1.40;;;;;;;18.15;30.12;101703.25;1415945;89;22229;-84
2022/05/19 07:40:22;;;;;;;8.87;2.00;;;;;;;18.29;32.07;101699.08;1436302;90;21378;-86
2022/05/19 07:42:48;;;;;;;2.83;1.57;;;;;;;18.37;32.41;101703.93;1501118;89;21290;-83
2022/05/19 07:45:15;;;;;;;10.77;2.00;;;;;;;18.52;33.22;101692.53;1479008;89;21568;-83
2022/05/19 07:47:42;;;;;;;6.30;1.40;;;;;;;18.67;32.18;101699.73;1420046;89;22332;-84
2022/05/19 07:50:10;;;;;;;6.40;1.40;;;;;;;18.71;30.92;101692.18;1426073;89;21356;-85
2022/05/19 07:52:38;;;;;;;6.03;2.07;;;;;;;18.88;31.76;101691.68;1453518;89;23462;-85
2022/05/19 07:55:06;;;;;;;4.13;1.40;;;;;;;18.96;30.43;101690.80;1445373;89;21422;-85
2022/05/19 07:57:32;;;;;;;7.57;1.47;;;;;;;19.05;29.92;101687.94;1431312;89;21902;-85
2022/05/19 08:00:03;;;;;;;2.17;1.10;;;;;;;19.06;28.52;101688.77;1443948;89;21444;-84
2022/05/19 08:02:32;;;;;;;2.87;1.30;;;;;;;19.03;25.48;101684.59;1426307;90;21557;-86
2022/05/19 08:05:00;;;;;;;4.90;2.63;;;;;;;19.05;27.89;101688.45;1453762;89;21488;-85
2022/05/19 08:07:27;;;;;;;4.93;1.10;;;;;;;19.21;28.74;101685.69;1444977;89;23427;-85
2022/05/19 08:15:35;;;;;;;9.17;1.40;;;;;;;19.75;28.41;101684.44;1459061;89;21304;-85
2022/05/19 08:18:13;;;;;;;3.50;1.40;;;;;;;19.86;27.39;101689.09;1479120;89;21569;-86
2022/05/19 08:20:43;;;;;;;2.35;1.32;;;;;;;19.83;26.23;101686.25;1451420;91;22324;-84
2022/05/19 08:23:18;;;;;;;2.85;1.10;;;;;;;19.95;26.80;101691.53;1409405;89;21369;-88
2022/05/19 08:25:45;;;;;;;2.00;1.10;;;;;;;20.05;27.16;101690.80;1406644;91;21310;-88
2022/05/19 08:28:14;;;;;;;9.45;2.12;;;;;;;20.22;27.00;101684.77;1406953;91;22434;-87
2022/05/19 08:30:46;;;;;;;2.92;1.42;;;;;;;20.34;26.88;101686.55;1422542;90;21649;-87
2022/05/19 08:33:14;;;;;;;9.95;1.92;;;;;;;20.52;27.52;101682.17;1424173;90;21442;-87
2022/05/19 08:35:41;;;;;;;5.60;1.80;;;;;;;20.56;26.65;101686.19;1413563;91;21450;-91
2022/05/19 08:38:07;;;;;;;7.95;2.22;;;;;;;20.67;27.01;101681.70;1430212;89;21449;-86
2022/05/19 08:40:39;;;;;;;10.78;2.37;;;;;;;20.82;26.75;101679.02;1415523;90;21487;-84
2022/05/19 08:43:08;;;;;;;8.28;1.90;;;;;;;20.89;26.21;101681.84;1424224;91;21532;-81
2022/05/19 08:45:42;;;;;;;7.25;1.52;;;;;;;20.92;26.04;101678.77;1428417;91;21442;-81
2022/05/19 08:48:13;;;;;;;5.17;1.70;;;;;;;20.95;26.05;101679.74;1434859;90;21450;-79
2022/05/19 08:51:00;;;;;;;5.00;1.62;;;;;;;20.97;25.13;101677.68;1418358;90;21398;-79
2022/05/19 08:53:34;;;;;;;4.60;1.50;;;;;;;21.08;26.50;101665.62;1432077;91;21604;-79
2022/05/19 08:56:14;;;;;;;7.12;1.67;;;;;;;21.18;25.73;101667.01;1424165;90;21517;-80
2022/05/19 08:58:51;;;;;;;7.25;2.50;;;;;;;21.22;26.13;101666.12;1421859;91;21612;-80
2022/05/19 09:01:25;;;;;;;5.05;1.60;;;;;;;21.32;26.37;101663.12;1428261;90;21664;-79
2022/05/19 09:04:35;;;;;;;12.47;1.95;;;;;;;21.44;26.79;101660.31;1425390;91;22662;-78
2022/05/19 09:10:26;;;;;;;4.58;1.32;;;;;;;21.61;26.59;101664.45;1423211;90;21405;-78
2022/05/19 09:12:57;;;;;;;9.18;2.22;;;;;;;21.73;25.80;101657.22;1415436;91;23587;-78
2022/05/19 09:15:24;;;;;;;4.28;1.95;;;;;;;21.81;24.11;101654.41;1366088;94;22340;-78
2022/05/19 09:17:50;;;;;;;3.85;1.47;;;;;;;21.88;24.81;101656.63;1409787;91;21442;-79
2022/05/19 09:20:22;;;;;;;4.58;1.70;;;;;;;21.86;24.79;101653.28;1424248;91;21553;-78
2022/05/19 09:22:48;;;;;;;9.53;2.12;;;;;;;21.98;25.92;101654.46;1418462;91;21509;-78
2022/05/19 09:25:18;;;;;;;8.03;1.82;;;;;;;22.16;25.22;101647.77;1429428;91;21679;-78
2022/05/19 09:27:49;;;;;;;8.13;2.33;;;;;;;22.12;24.57;101642.43;1431718;91;21738;-76
2022/05/19 09:30:33;;;;;;;2.85;1.80;;;;;;;22.21;24.39;101641.29;1424385;91;21486;-76
2022/05/19 09:32:59;;;;;;;15.48;1.55;;;;;;;22.30;25.05;101639.63;1426497;89;21592;-75
2022/05/19 09:35:31;;;;;;;2.05;1.60;;;;;;;22.41;24.95;101638.26;1413207;91;21518;-76
2022/05/19 09:38:26;;;;;;;3.55;1.50;;;;;;;22.58;23.95;101637.41;1425603;89;21501;-76
2022/05/19 09:40:58;;;;;;;12.43;2.70;;;;;;;22.73;24.28;101637.33;1431963;89;21390;-77
2022/05/19 09:43:33;;;;;;;3.35;1.98;;;;;;;22.73;24.93;101632.75;1423108;91;21702;-76
2022/05/19 09:46:14;;;;;;;12.23;2.20;;;;;;;22.74;24.56;101636.28;1428673;90;22518;-77
2022/05/19 09:48:48;;;;;;;2.52;1.20;;;;;;;22.83;24.40;101633.73;1426254;91;21517;-78
2022/05/19 09:51:19;;;;;;;13.75;1.98;;;;;;;22.65;23.60;101626.69;1421089;91;21517;-77
2022/05/19 09:53:55;;;;;;;36.55;3.70;;;;;;;22.61;23.89;101590.33;1421617;91;21495;-78
2022/05/19 09:56:25;;;;;;;5.10;2.37;;;;;;;22.78;25.08;101618.64;1421508;91;21436;-77
2022/05/19 09:58:58;;;;;;;11.18;1.95;;;;;;;22.87;24.69;101616.13;1425153;90;21435;-77
2022/05/19 10:01:38;;;;;;;10.25;2.17;;;;;;;22.95;24.40;101611.91;1429101;91;21538;-77
2022/05/19 10:04:21;;;;;;;22.45;3.25;;;;;;;23.13;24.10;101614.58;1427019;91;21524;-90
2022/05/19 10:06:58;;;;;;;5.08;1.70;;;;;;;23.26;24.06;101614.64;1414204;91;22478;-86
2022/05/19 10:09:34;;;;;;;2.77;1.42;;;;;;;23.13;22.72;101609.18;1421592;91;21554;-86
2022/05/19 10:12:13;;;;;;;9.43;1.92;;;;;;;23.16;23.96;101608.77;1427190;91;21531;-86
2022/05/19 10:14:41;;;;;;;3.25;1.90;;;;;;;23.34;23.91;101609.58;1414251;91;21457;-85
2022/05/19 10:17:22;;;;;;;4.28;1.67;;;;;;;23.55;23.68;101613.47;1425935;91;21558;-86
2022/05/19 10:20:09;;;;;;;4.80;1.50;;;;;;;23.64;22.98;101610.05;1425599;91;21503;-86
2022/05/19 10:23:18;;;;;;;2.65;1.57;;;;;;;23.59;22.88;101604.42;1421859;91;21531;-85
2022/05/19 10:25:50;;;;;;;4.37;1.85;;;;;;;23.67;23.20;101605.59;1428321;91;21538;-86
2022/05/19 10:31:48;;;;;;;3.40;1.07;;;;;;;23.93;22.82;101592.64;1431867;91;21406;-85
2022/05/19 10:34:58;;;;;;;2.40;1.12;;;;;;;23.79;22.98;101602.61;1431807;91;21634;-86
2022/05/19 10:37:56;;;;;;;5.03;1.45;;;;;;;23.81;22.93;101605.95;1374514;93;22907;-82
2022/05/19 10:40:53;;;;;;;23.45;2.15;;;;;;;23.82;21.50;101608.98;1425045;90;21634;-89
2022/05/19 10:43:46;;;;;;;4.62;1.70;;;;;;;23.89;23.61;101597.34;1421550;91;22456;-87
2022/05/19 10:46:15;;;;;;;4.95;1.92;;;;;;;24.05;23.80;101592.84;1427148;91;21560;-87
2022/05/19 10:49:09;;;;;;;5.70;2.08;;;;;;;24.23;23.45;101580.89;1424122;91;21605;-87
2022/05/19 10:52:16;;;;;;;6.42;1.70;;;;;;;24.30;22.97;101588.45;1431840;91;21501;-88
2022/05/19 10:55:12;;;;;;;5.90;1.55;;;;;;;24.06;23.19;101579.13;1429868;91;22285;-88
2022/05/19 10:58:02;;;;;;;4.20;2.17;;;;;;;23.99;22.97;101580.16;1428389;91;21516;-88
2022/05/19 11:01:06;;;;;;;2.22;1.60;;;;;;;24.15;22.48;101579.75;1403560;91;21501;-88
2022/05/19 11:04:05;;;;;;;2.15;1.22;;;;;;;24.02;22.42;101575.69;1416484;91;21407;-88
2022/05/19 11:06:57;;;;;;;7.03;1.80;;;;;;;23.56;21.96;101583.22;1419228;91;21443;-87
2022/05/19 11:10:01;;;;;;;3.75;1.37;;;;;;;23.69;22.30;101576.49;1416759;91;21479;-89
2022/05/19 11:13:03;;;;;;;4.03;1.37;;;;;;;23.70;23.51;101571.42;1415722;91;22403;-88
2022/05/19 11:15:46;;;;;;;4.03;1.50;;;;;;;23.68;22.38;101566.73;1427696;91;21472;-89
2022/05/19 11:18:21;;;;;;;7.33;1.75;;;;;;;23.78;23.90;101568.52;1428941;90;22610;-90
2022/05/19 11:21:05;;;;;;;1.20;1.10;;;;;;;24.02;21.71;101556.77;1419444;90;21524;-90
2022/05/19 11:23:40;;;;;;;2.95;1.45;;;;;;;24.23;22.58;101553.02;1419776;90;21598;-90
2022/05/19 11:26:48;;;;;;;5.15;1.65;;;;;;;24.14;22.36;101538.02;1424978;91;21493;-91
2022/05/19 11:29:32;;;;;;;3.05;1.50;;;;;;;24.24;22.72;101539.79;1417637;91;21480;-89
2022/05/19 11:32:07;;;;;;;3.40;1.27;;;;;;;24.43;22.45;101527.30;1422962;91;21635;-90
2022/05/19 11:35:00;;;;;;;3.45;1.30;;;;;;;24.49;22.71;101537.27;1428267;91;21450;-90
2022/05/19 11:37:44;;;;;;;4.08;1.90;;;;;;;24.67;22.59;101530.63;1428298;91;21502;-91
2022/05/19 11:40:28;;;;;;;6.05;1.60;;;;;;;24.86;22.47;101515.86;1418535;91;22411;-89
2022/05/19 11:43:11;;;;;;;8.68;1.62;;;;;;;25.03;22.57;101522.96;1432622;90;21596;-89
2022/05/19 11:55:56;;;;;;;4.20;1.80;;;;;;;25.13;21.69;101503.84;1443123;89;21333;-89
2022/05/19 11:58:35;;;;;;;9.20;1.87;;;;;;;25.18;22.40;101505.94;1437518;89;21342;-89
2022/05/19 12:01:22;;;;;;;8.68;1.70;;;;;;;25.29;21.76;101494.41;1454980;89;21422;-89
2022/05/19 12:04:12;;;;;;;9.30;1.85;;;;;;;25.40;22.18;101492.84;1437529;90;22376;-89
2022/05/19 12:06:50;;;;;;;7.78;2.20;;;;;;;25.50;21.93;101493.20;1435659;91;23310;-89
2022/05/19 12:09:39;;;;;;;10.53;3.12;;;;;;;25.58;21.42;101494.28;1428947;89;21511;-89
2022/05/19 12:12:26;;;;;;;8.10;1.40;;;;;;;25.60;21.67;101488.63;1435709;89;21496;-88
2022/05/19 12:15:27;;;;;;;5.83;2.10;;;;;;;25.56;21.89;101484.70;1431112;91;24162;-89
2022/05/19 12:18:11;;;;;;;2.22;1.85;;;;;;;25.62;21.44;101482.46;1433715;91;21495;-89